DeKalb, Illinois
Current Conditions -  °F | °C
As of 8:35 PM on Sunday 25 Jan 2015 (Local Time) from KDKB Reporting Station
Clear Clear  
Wind Chill:   Ceiling: Unl
Heat Index: 19°   Visibility: 10mi
Dew Point: 13°   Wind: 13mph
Humidity: 78%   Direction: 350°N
Pressure: 29.99"   Gusts: NA
Location:  41.93°N, 88.75°W
Report Text: KDKB 260235Z AUTO 35011KT 10SM CLR M07/M10 A2999 RMK AO2 T10731105
Loading
Personal Weather Stations






























Interactive Weather Map New forecast layout! Learn more

10-Day Weather Forecast

Advertisements
Track Severe Weather on mobile